createdAt,value
2024-02-29T00:00:34.090Z,23.03
2024-02-29T00:01:34.074Z,23.02
2024-02-29T00:02:34.061Z,23.02
2024-02-29T00:03:34.132Z,23.02
2024-02-29T00:04:34.167Z,23.02
2024-02-29T00:05:34.182Z,23.02
2024-02-29T00:06:34.229Z,23.01
2024-02-29T00:07:34.241Z,23.02
2024-02-29T00:08:34.287Z,23.01
2024-02-29T00:09:34.378Z,23.01
2024-02-29T00:10:34.364Z,23.01
2024-02-29T00:11:34.471Z,23.02
2024-02-29T00:12:34.439Z,23.02
2024-02-29T00:13:34.469Z,23.02
2024-02-29T00:14:34.534Z,23.00
2024-02-29T00:15:34.689Z,23.01
2024-02-29T00:16:34.617Z,23.01
2024-02-29T00:17:34.772Z,23.01
2024-02-29T00:18:34.761Z,23.01
2024-02-29T00:19:34.733Z,23.01
2024-02-29T00:20:34.791Z,23.00
2024-02-29T00:21:34.877Z,23.00
2024-02-29T00:22:34.881Z,22.99
2024-02-29T00:23:34.931Z,23.00
2024-02-29T00:24:37.411Z,23.00
2024-02-29T00:25:35.057Z,23.01
2024-02-29T00:26:35.084Z,23.01
2024-02-29T00:27:35.265Z,23.02
2024-02-29T00:28:35.186Z,23.03
2024-02-29T00:29:35.213Z,23.05
2024-02-29T00:30:35.336Z,23.06
2024-02-29T00:31:35.302Z,23.06
2024-02-29T00:32:35.585Z,23.08
2024-02-29T00:33:35.413Z,23.10
2024-02-29T00:34:35.406Z,23.12
2024-02-29T00:35:35.443Z,23.14
2024-02-29T00:36:35.596Z,23.15
2024-02-29T00:37:35.513Z,23.17
2024-02-29T00:38:35.541Z,23.19
2024-02-29T00:39:35.596Z,23.21
2024-02-29T00:40:35.599Z,23.24
2024-02-29T00:41:35.622Z,23.27
2024-02-29T00:42:35.656Z,23.30
2024-02-29T00:43:35.666Z,23.33
2024-02-29T00:44:35.653Z,23.35
2024-02-29T00:45:35.710Z,23.37
2024-02-29T00:46:35.675Z,23.40
2024-02-29T00:47:35.772Z,23.42
2024-02-29T00:48:35.763Z,23.46
2024-02-29T00:49:35.767Z,23.48
2024-02-29T00:50:35.792Z,23.52
2024-02-29T00:51:35.873Z,23.54
2024-02-29T00:52:35.831Z,23.57
2024-02-29T00:53:35.879Z,23.61
2024-02-29T00:54:35.977Z,23.63
2024-02-29T00:55:36.013Z,23.66
2024-02-29T00:56:36.078Z,23.68
2024-02-29T00:57:36.163Z,23.71
2024-02-29T00:58:36.231Z,23.73
2024-02-29T00:59:36.288Z,23.76
2024-02-29T01:00:36.437Z,23.79
2024-02-29T01:01:36.491Z,23.81
2024-02-29T01:02:36.500Z,23.83
2024-02-29T01:03:36.607Z,23.87
2024-02-29T01:04:36.615Z,23.89
2024-02-29T01:05:36.674Z,23.92
2024-02-29T01:06:36.747Z,23.94
2024-02-29T01:07:36.735Z,23.96
2024-02-29T01:08:36.871Z,23.98
2024-02-29T01:09:36.869Z,24.00
2024-02-29T01:10:36.850Z,24.02
2024-02-29T01:11:36.880Z,24.05
2024-02-29T01:12:36.957Z,24.07
2024-02-29T01:13:36.971Z,24.08
2024-02-29T01:14:37.014Z,24.10
2024-02-29T01:15:37.056Z,24.12
2024-02-29T01:16:37.083Z,24.14
2024-02-29T01:17:37.113Z,24.15
2024-02-29T01:18:37.168Z,24.17
2024-02-29T01:19:37.167Z,24.19
2024-02-29T01:20:37.204Z,24.20
2024-02-29T01:21:37.269Z,24.23
2024-02-29T01:22:37.256Z,24.24
2024-02-29T01:23:37.272Z,24.26
2024-02-29T01:24:37.336Z,24.28
2024-02-29T01:25:37.332Z,24.30
2024-02-29T01:26:37.360Z,24.31
2024-02-29T01:27:37.493Z,24.32
2024-02-29T01:28:37.415Z,24.34
2024-02-29T01:29:37.434Z,24.35
2024-02-29T01:30:37.479Z,24.37
2024-02-29T01:31:37.476Z,24.38
2024-02-29T01:32:38.043Z,24.40
2024-02-29T01:33:37.570Z,24.41
2024-02-29T01:34:58.546Z,24.42
2024-02-29T01:35:37.555Z,24.40
2024-02-29T01:36:37.555Z,24.43
2024-02-29T01:37:37.543Z,24.45
2024-02-29T01:38:37.611Z,24.46
2024-02-29T01:39:37.747Z,24.47
2024-02-29T01:40:37.543Z,24.49
2024-02-29T01:41:37.527Z,24.49
2024-02-29T01:42:37.551Z,24.51
2024-02-29T01:43:37.527Z,24.52
2024-02-29T01:44:37.558Z,24.53
2024-02-29T01:45:37.558Z,24.54
2024-02-29T01:46:37.530Z,24.55
2024-02-29T01:47:37.562Z,24.56
2024-02-29T01:48:37.585Z,24.57
2024-02-29T01:49:37.533Z,24.57
2024-02-29T01:50:37.548Z,24.58
2024-02-29T01:51:37.582Z,24.59
2024-02-29T01:52:37.558Z,24.60
2024-02-29T01:53:37.557Z,24.61
2024-02-29T01:54:37.579Z,24.61
2024-02-29T01:55:37.544Z,24.62
2024-02-29T01:56:37.550Z,24.63
2024-02-29T01:57:37.565Z,24.64
2024-02-29T01:58:37.556Z,24.64
2024-02-29T01:59:37.554Z,24.65
2024-02-29T02:00:37.655Z,24.66
2024-02-29T02:01:37.612Z,24.67
2024-02-29T02:02:37.557Z,24.67
2024-02-29T02:03:37.583Z,24.68
2024-02-29T02:04:37.570Z,24.69
2024-02-29T02:05:37.561Z,24.69
2024-02-29T02:06:37.589Z,24.70
2024-02-29T02:07:37.555Z,24.71
2024-02-29T02:08:37.673Z,24.72
2024-02-29T02:09:37.602Z,24.73
2024-02-29T02:10:37.572Z,24.73
2024-02-29T02:11:37.580Z,24.74
2024-02-29T02:12:37.793Z,24.75
2024-02-29T02:13:37.566Z,24.76
2024-02-29T02:14:37.566Z,24.77
2024-02-29T02:15:37.590Z,24.77
2024-02-29T02:16:37.565Z,24.79
2024-02-29T02:17:37.592Z,24.80
2024-02-29T02:18:37.609Z,24.80
2024-02-29T02:19:37.561Z,24.81
2024-02-29T02:20:37.563Z,24.82
2024-02-29T02:21:37.579Z,24.82
2024-02-29T02:22:37.558Z,24.83
2024-02-29T02:23:37.572Z,24.84
2024-02-29T02:24:37.605Z,24.85
2024-02-29T02:25:37.564Z,24.86
2024-02-29T02:26:37.570Z,24.87
2024-02-29T02:27:37.601Z,24.89
2024-02-29T02:28:37.566Z,24.89
2024-02-29T02:29:37.556Z,24.90
2024-02-29T02:30:37.587Z,24.90
2024-02-29T02:31:37.564Z,24.91
2024-02-29T02:32:37.594Z,24.92
2024-02-29T02:33:37.570Z,24.92
2024-02-29T02:34:37.575Z,24.93
2024-02-29T02:35:37.563Z,24.93
2024-02-29T02:36:37.702Z,24.93
2024-02-29T02:37:37.650Z,24.94
2024-02-29T02:38:37.724Z,24.95
2024-02-29T02:39:37.815Z,24.95
2024-02-29T02:40:37.855Z,24.96
2024-02-29T02:41:37.913Z,24.97
2024-02-29T02:42:38.040Z,24.98
2024-02-29T02:43:38.050Z,24.98
2024-02-29T02:44:38.133Z,24.99
2024-02-29T02:45:38.209Z,24.99
2024-02-29T02:46:38.255Z,24.99
2024-02-29T02:47:38.376Z,24.99
2024-02-29T02:48:38.418Z,24.99
2024-02-29T02:49:38.470Z,25.00
2024-02-29T02:50:38.607Z,25.00
2024-02-29T02:51:38.615Z,25.00
2024-02-29T02:52:38.655Z,25.00
2024-02-29T02:53:38.708Z,25.01
2024-02-29T02:54:38.793Z,25.01
2024-02-29T02:55:38.837Z,25.01
2024-02-29T02:56:38.901Z,25.01
2024-02-29T02:57:38.995Z,25.02
2024-02-29T02:58:39.065Z,25.01
2024-02-29T02:59:39.114Z,25.02
2024-02-29T03:00:39.361Z,25.02
2024-02-29T03:01:39.272Z,25.02
2024-02-29T03:02:39.317Z,25.03
2024-02-29T03:03:39.394Z,25.03
2024-02-29T03:04:39.457Z,25.03
2024-02-29T03:05:39.502Z,25.04
2024-02-29T03:06:39.597Z,25.03
2024-02-29T03:07:39.935Z,25.03
2024-02-29T03:08:39.690Z,25.04
2024-02-29T03:09:39.775Z,25.04
2024-02-29T03:10:39.819Z,25.04
2024-02-29T03:11:39.882Z,25.05
2024-02-29T03:12:40.041Z,25.04
2024-02-29T03:13:39.983Z,25.04
2024-02-29T03:14:40.064Z,25.04
2024-02-29T03:15:40.149Z,25.05
2024-02-29T03:16:40.760Z,25.05
2024-02-29T03:17:40.283Z,25.05
2024-02-29T03:18:40.424Z,25.05
2024-02-29T03:19:40.445Z,25.05
2024-02-29T03:20:40.476Z,25.06
2024-02-29T03:21:40.623Z,25.05
2024-02-29T03:22:40.632Z,25.05
2024-02-29T03:23:40.706Z,25.05
2024-02-29T03:24:40.815Z,25.06
2024-02-29T03:25:40.843Z,25.05
2024-02-29T03:26:40.898Z,25.06
2024-02-29T03:27:40.949Z,25.06
2024-02-29T03:28:41.036Z,25.06
2024-02-29T03:29:41.057Z,25.07
2024-02-29T03:30:41.180Z,25.06
2024-02-29T03:31:41.205Z,25.07
2024-02-29T03:32:41.267Z,25.07
2024-02-29T03:33:41.353Z,25.06
2024-02-29T03:34:41.417Z,25.06
2024-02-29T03:35:41.496Z,25.07
2024-02-29T03:36:41.584Z,25.07
2024-02-29T03:37:41.596Z,25.07
2024-02-29T03:38:41.676Z,25.07
2024-02-29T03:39:41.742Z,25.07
2024-02-29T03:40:45.763Z,25.07
2024-02-29T03:41:41.778Z,25.07
2024-02-29T03:42:41.814Z,25.06
2024-02-29T03:43:41.772Z,25.07
2024-02-29T03:44:41.761Z,25.07
2024-02-29T03:45:41.777Z,25.08
2024-02-29T03:46:41.766Z,25.08
2024-02-29T03:47:41.816Z,25.08
2024-02-29T03:48:41.799Z,25.07
2024-02-29T03:49:41.769Z,25.07
2024-02-29T03:50:41.770Z,25.08
2024-02-29T03:51:41.794Z,25.07
2024-02-29T03:52:41.784Z,25.08
2024-02-29T03:53:41.786Z,25.07
2024-02-29T03:54:41.877Z,25.07
2024-02-29T03:55:41.791Z,25.07
2024-02-29T03:56:41.767Z,25.07
2024-02-29T03:57:41.842Z,25.07
2024-02-29T03:58:41.765Z,25.07
2024-02-29T03:59:41.775Z,25.07
2024-02-29T04:00:41.819Z,25.07
2024-02-29T04:01:41.819Z,25.07
2024-02-29T04:02:41.776Z,25.07
2024-02-29T04:03:41.921Z,25.06
2024-02-29T04:04:41.900Z,25.07
2024-02-29T04:05:41.987Z,25.06
2024-02-29T04:06:42.103Z,25.06
2024-02-29T04:07:42.088Z,25.06
2024-02-29T04:08:42.155Z,25.06
2024-02-29T04:09:42.257Z,25.06
2024-02-29T04:10:42.280Z,25.05
2024-02-29T04:11:42.341Z,25.05
2024-02-29T04:12:42.432Z,25.05
2024-02-29T04:13:42.463Z,25.05
2024-02-29T04:14:42.522Z,25.05
2024-02-29T04:15:42.735Z,25.05
2024-02-29T04:16:42.622Z,25.06
2024-02-29T04:17:42.728Z,25.06
2024-02-29T04:18:42.789Z,25.06
2024-02-29T04:19:42.845Z,25.05
2024-02-29T04:20:42.991Z,25.04
2024-02-29T04:21:42.969Z,25.05
2024-02-29T04:22:43.024Z,25.05
2024-02-29T04:23:43.105Z,25.05
2024-02-29T04:24:43.161Z,25.05
2024-02-29T04:25:43.226Z,25.04
2024-02-29T04:26:43.279Z,25.04
2024-02-29T04:27:43.423Z,25.04
2024-02-29T04:28:50.921Z,25.02
2024-02-29T04:29:50.909Z,25.03
2024-02-29T04:30:50.967Z,25.03
2024-02-29T04:31:58.567Z,24.99
2024-02-29T04:32:58.625Z,25.01
2024-02-29T04:33:58.603Z,25.01
2024-02-29T04:34:58.564Z,25.01
2024-02-29T04:35:58.662Z,25.01
2024-02-29T04:36:58.590Z,25.01
2024-02-29T04:37:58.570Z,25.01
2024-02-29T04:38:58.584Z,25.01
2024-02-29T04:39:58.597Z,25.01
2024-02-29T04:40:58.587Z,25.02
2024-02-29T04:41:58.599Z,25.02
2024-02-29T04:42:58.610Z,25.02
2024-02-29T04:43:58.573Z,25.01
2024-02-29T04:44:58.573Z,25.02
2024-02-29T04:45:58.631Z,25.01
2024-02-29T04:46:58.576Z,25.02
2024-02-29T04:47:58.643Z,25.01
2024-02-29T04:48:58.599Z,25.01
2024-02-29T04:49:58.581Z,25.01
2024-02-29T04:50:58.575Z,25.01
2024-02-29T04:51:58.594Z,25.01
2024-02-29T04:52:58.591Z,25.01
2024-02-29T04:53:58.596Z,25.01
2024-02-29T04:54:58.659Z,25.01
2024-02-29T04:55:58.603Z,25.00
2024-02-29T04:56:58.586Z,25.00
2024-02-29T04:57:58.610Z,25.00
2024-02-29T04:58:58.588Z,25.01
2024-02-29T04:59:58.593Z,25.00
2024-02-29T05:00:58.689Z,25.00
2024-02-29T05:01:58.659Z,25.00
2024-02-29T05:02:58.609Z,24.99
2024-02-29T05:03:58.640Z,24.99
2024-02-29T05:04:58.608Z,24.98
2024-02-29T05:05:58.614Z,24.99
2024-02-29T05:06:58.639Z,24.99
2024-02-29T05:07:58.627Z,24.98
2024-02-29T05:08:58.627Z,24.99
2024-02-29T05:09:58.651Z,24.99
2024-02-29T05:10:58.765Z,24.98
2024-02-29T05:11:58.733Z,24.98
2024-02-29T05:12:58.801Z,24.97
2024-02-29T05:13:58.839Z,24.98
2024-02-29T05:14:58.902Z,24.97
2024-02-29T05:15:58.963Z,24.97
2024-02-29T05:16:58.983Z,24.97
2024-02-29T05:17:59.071Z,24.97
2024-02-29T05:18:59.123Z,24.96
2024-02-29T05:19:59.145Z,24.96
2024-02-29T05:20:59.175Z,24.96
2024-02-29T05:21:59.312Z,24.96
2024-02-29T05:22:59.300Z,24.96
2024-02-29T05:23:59.373Z,24.96
2024-02-29T05:24:59.519Z,24.95
2024-02-29T05:25:59.523Z,24.95
2024-02-29T05:26:59.663Z,24.95
2024-02-29T05:27:59.718Z,24.94
2024-02-29T05:28:59.681Z,24.93
2024-02-29T05:29:59.764Z,24.93
2024-02-29T05:30:59.878Z,24.93
2024-02-29T05:31:59.911Z,24.93
2024-02-29T05:33:00.017Z,24.92
2024-02-29T05:34:00.100Z,24.92
2024-02-29T05:35:00.129Z,24.92
2024-02-29T05:36:00.195Z,24.92
2024-02-29T05:37:00.284Z,24.91
2024-02-29T05:38:00.341Z,24.91
2024-02-29T05:39:00.366Z,24.91
2024-02-29T05:40:00.440Z,24.91
2024-02-29T05:41:00.443Z,24.90
2024-02-29T05:42:00.488Z,24.90
2024-02-29T05:43:00.579Z,24.90
2024-02-29T05:44:00.556Z,24.89
2024-02-29T05:45:00.588Z,24.89
2024-02-29T05:46:00.641Z,24.89
2024-02-29T05:47:00.672Z,24.88
2024-02-29T05:48:00.855Z,24.88
2024-02-29T05:49:00.842Z,24.88
2024-02-29T05:50:00.798Z,24.89
2024-02-29T05:51:00.818Z,24.88
2024-02-29T05:52:00.924Z,24.88
2024-02-29T05:53:00.862Z,24.88
2024-02-29T05:54:00.908Z,24.88
2024-02-29T05:55:00.965Z,24.88
2024-02-29T05:56:00.934Z,24.88
2024-02-29T05:57:04.296Z,24.88
2024-02-29T05:58:01.018Z,24.88
2024-02-29T05:59:00.944Z,24.88
2024-02-29T06:00:00.949Z,24.88
2024-02-29T06:01:01.034Z,24.88
2024-02-29T06:02:01.095Z,24.89
2024-02-29T06:03:00.960Z,24.89
2024-02-29T06:04:01.102Z,24.89
2024-02-29T06:05:00.999Z,24.88
2024-02-29T06:06:00.948Z,24.89
2024-02-29T06:07:00.985Z,24.90
2024-02-29T06:08:01.002Z,24.90
2024-02-29T06:09:00.961Z,24.90
2024-02-29T06:10:00.992Z,24.90
2024-02-29T06:11:00.975Z,24.91
2024-02-29T06:12:00.956Z,24.91
2024-02-29T06:13:01.054Z,24.91
2024-02-29T06:14:00.981Z,24.91
2024-02-29T06:15:00.967Z,24.92
2024-02-29T06:16:00.976Z,24.92
2024-02-29T06:17:00.968Z,24.93
2024-02-29T06:18:01.022Z,24.93
2024-02-29T06:19:01.019Z,24.93
2024-02-29T06:20:00.963Z,24.94
2024-02-29T06:21:00.968Z,24.94
2024-02-29T06:22:00.991Z,24.93
2024-02-29T06:23:01.876Z,24.94
2024-02-29T06:24:00.967Z,24.94
2024-02-29T06:25:01.007Z,24.95
2024-02-29T06:26:00.954Z,24.94
2024-02-29T06:27:00.948Z,24.95
2024-02-29T06:28:00.993Z,24.97
2024-02-29T06:29:00.993Z,24.96
2024-02-29T06:30:00.965Z,24.96
2024-02-29T06:31:01.004Z,24.97
2024-02-29T06:32:00.993Z,24.97
2024-02-29T06:33:01.092Z,24.97
2024-02-29T06:34:01.096Z,24.98
2024-02-29T06:35:01.047Z,24.97
2024-02-29T06:36:01.067Z,24.98
2024-02-29T06:37:01.109Z,24.98
2024-02-29T06:38:01.108Z,24.99
2024-02-29T06:39:01.126Z,24.99
2024-02-29T06:40:01.289Z,24.98
2024-02-29T06:41:01.185Z,24.99
2024-02-29T06:42:01.231Z,25.00
2024-02-29T06:43:01.284Z,24.99
2024-02-29T06:44:01.246Z,25.00
2024-02-29T06:45:01.254Z,25.00
2024-02-29T06:46:01.385Z,25.00
2024-02-29T06:47:01.282Z,24.99
2024-02-29T06:48:01.364Z,24.98
2024-02-29T06:49:01.347Z,24.98
2024-02-29T06:50:01.426Z,24.98
2024-02-29T06:51:01.384Z,24.98
2024-02-29T06:52:01.435Z,24.98
2024-02-29T06:53:01.423Z,24.98
2024-02-29T06:54:01.461Z,24.98
2024-02-29T06:55:01.512Z,24.98
2024-02-29T06:56:01.504Z,24.98
2024-02-29T06:57:01.539Z,24.98
2024-02-29T06:58:01.590Z,24.98
2024-02-29T06:59:01.556Z,24.99
2024-02-29T07:00:01.575Z,24.98
2024-02-29T07:01:01.667Z,24.98
2024-02-29T07:02:01.656Z,24.99
2024-02-29T07:03:01.666Z,24.97
2024-02-29T07:04:01.739Z,24.98
2024-02-29T07:05:01.716Z,24.98
2024-02-29T07:06:01.721Z,24.99
2024-02-29T07:07:01.819Z,24.99
2024-02-29T07:08:01.771Z,25.00
2024-02-29T07:09:01.785Z,25.02
2024-02-29T07:10:01.931Z,25.04
2024-02-29T07:11:02.558Z,25.06
2024-02-29T07:12:01.852Z,25.07
2024-02-29T07:13:01.992Z,25.08
2024-02-29T07:14:01.927Z,25.11
2024-02-29T07:15:01.966Z,25.12
2024-02-29T07:16:02.025Z,25.14
2024-02-29T07:17:02.079Z,25.15
2024-02-29T07:18:02.183Z,25.16
2024-02-29T07:19:02.252Z,25.18
2024-02-29T07:20:02.343Z,25.20
2024-02-29T07:21:02.306Z,25.20
2024-02-29T07:22:02.397Z,25.22
2024-02-29T07:23:02.455Z,25.24
2024-02-29T07:24:02.520Z,25.26
2024-02-29T07:25:02.610Z,25.28
2024-02-29T07:26:02.666Z,25.31
2024-02-29T07:27:02.781Z,25.32
2024-02-29T07:28:02.820Z,25.34
2024-02-29T07:29:02.853Z,25.37
2024-02-29T07:30:02.924Z,25.38
2024-02-29T07:31:03.087Z,25.41
2024-02-29T07:32:03.054Z,25.42
2024-02-29T07:33:03.166Z,25.45
2024-02-29T07:34:03.274Z,25.47
2024-02-29T07:35:03.228Z,25.49
2024-02-29T07:36:03.310Z,25.50
2024-02-29T07:37:03.394Z,25.50
2024-02-29T07:38:03.397Z,25.51
2024-02-29T07:39:03.461Z,25.51
2024-02-29T07:40:03.608Z,25.50
2024-02-29T07:41:03.553Z,25.48
2024-02-29T07:42:03.588Z,25.45
2024-02-29T07:43:03.618Z,25.43
2024-02-29T07:44:03.607Z,25.42
2024-02-29T07:45:03.636Z,25.41
2024-02-29T07:46:03.679Z,25.40
2024-02-29T07:47:03.626Z,25.37
2024-02-29T07:48:03.677Z,25.35
2024-02-29T07:49:03.775Z,25.33
2024-02-29T07:50:03.698Z,25.31
2024-02-29T07:51:03.714Z,25.30
2024-02-29T07:52:03.752Z,25.27
2024-02-29T07:53:03.744Z,25.26
2024-02-29T07:54:03.767Z,25.23
2024-02-29T07:55:03.838Z,25.20
2024-02-29T07:56:03.810Z,25.17
2024-02-29T07:57:03.858Z,25.12
2024-02-29T07:58:03.905Z,25.09
2024-02-29T07:59:03.917Z,25.06
2024-02-29T08:00:03.963Z,25.02
2024-02-29T08:01:04.106Z,25.01
2024-02-29T08:02:04.952Z,25.01
2024-02-29T08:03:04.040Z,24.98
2024-02-29T08:04:04.165Z,24.94
2024-02-29T08:05:04.113Z,24.92
2024-02-29T08:06:04.139Z,24.89
2024-02-29T08:07:04.202Z,24.86
2024-02-29T08:08:04.224Z,24.84
2024-02-29T08:09:04.907Z,24.82
2024-02-29T08:10:04.356Z,24.80
2024-02-29T08:11:04.429Z,24.77
2024-02-29T08:12:04.478Z,24.73
2024-02-29T08:13:04.502Z,24.70
2024-02-29T08:14:04.445Z,24.66
2024-02-29T08:15:04.464Z,24.62
2024-02-29T08:16:04.489Z,24.60
2024-02-29T08:17:04.459Z,24.60
2024-02-29T08:18:04.469Z,24.59
2024-02-29T08:19:04.498Z,24.58
2024-02-29T08:20:04.456Z,24.58
2024-02-29T08:21:04.468Z,24.58
2024-02-29T08:22:04.547Z,24.57
2024-02-29T08:23:04.484Z,24.55
2024-02-29T08:24:04.484Z,24.53
2024-02-29T08:25:04.618Z,24.50
2024-02-29T08:26:04.496Z,24.49
2024-02-29T08:27:04.528Z,24.45
2024-02-29T08:28:04.643Z,24.44
2024-02-29T08:29:04.618Z,24.43
2024-02-29T08:30:04.645Z,24.45
2024-02-29T08:31:04.724Z,24.44
2024-02-29T08:32:04.713Z,24.44
2024-02-29T08:33:04.736Z,24.45
2024-02-29T08:34:04.714Z,24.44
2024-02-29T08:35:04.682Z,24.42
2024-02-29T08:36:04.657Z,24.41
2024-02-29T08:37:04.695Z,24.40
2024-02-29T08:38:04.674Z,24.38
2024-02-29T08:39:04.714Z,24.37
2024-02-29T08:40:04.729Z,24.35
2024-02-29T08:41:04.750Z,24.35
2024-02-29T08:42:04.751Z,24.34
2024-02-29T08:43:04.827Z,24.33
2024-02-29T08:44:04.786Z,24.33
2024-02-29T08:45:04.777Z,24.33
2024-02-29T08:46:04.798Z,24.33
2024-02-29T08:47:04.804Z,24.34
2024-02-29T08:48:04.873Z,24.29
2024-02-29T08:49:04.921Z,24.25
2024-02-29T08:50:04.927Z,24.21
2024-02-29T08:51:04.979Z,24.16
2024-02-29T08:52:05.190Z,24.11
2024-02-29T08:53:05.090Z,24.08
2024-02-29T08:54:07.578Z,24.05
2024-02-29T08:55:05.333Z,24.03
2024-02-29T08:56:05.333Z,24.02
2024-02-29T08:57:05.374Z,24.01
2024-02-29T08:58:05.500Z,24.00
2024-02-29T08:59:05.449Z,23.99
2024-02-29T09:00:05.488Z,24.00
2024-02-29T09:01:05.661Z,24.00
2024-02-29T09:02:05.648Z,24.01
2024-02-29T09:03:05.609Z,24.01
2024-02-29T09:04:05.661Z,24.01
2024-02-29T09:05:13.231Z,24.01
2024-02-29T09:06:13.181Z,24.03
2024-02-29T09:07:13.241Z,24.04
2024-02-29T09:08:13.185Z,24.04
2024-02-29T09:09:13.202Z,24.04
2024-02-29T09:10:13.209Z,24.03
2024-02-29T09:11:13.219Z,24.03
2024-02-29T09:12:13.202Z,24.05
2024-02-29T09:13:20.944Z,24.05
2024-02-29T09:14:14.200Z,24.07
2024-02-29T09:15:13.212Z,24.08
2024-02-29T09:16:13.240Z,24.09
2024-02-29T09:17:13.220Z,24.10
2024-02-29T09:18:13.264Z,24.11
2024-02-29T09:19:13.290Z,24.12
2024-02-29T09:20:13.231Z,24.13
2024-02-29T09:21:13.225Z,24.16
2024-02-29T09:22:13.265Z,24.16
2024-02-29T09:23:13.220Z,24.18
2024-02-29T09:24:15.646Z,24.16
2024-02-29T09:25:13.264Z,24.17
2024-02-29T09:26:13.227Z,24.16
2024-02-29T09:27:13.237Z,24.16
2024-02-29T09:28:13.294Z,24.16
2024-02-29T09:29:13.317Z,24.16
2024-02-29T09:30:13.231Z,24.16
2024-02-29T09:31:13.313Z,24.15
2024-02-29T09:32:13.241Z,24.16
2024-02-29T09:33:13.321Z,24.15
2024-02-29T09:34:13.263Z,24.14
2024-02-29T09:35:13.245Z,24.14
2024-02-29T09:36:13.236Z,24.14
2024-02-29T09:37:13.327Z,24.14
2024-02-29T09:38:13.267Z,24.15
2024-02-29T09:39:13.257Z,24.18
2024-02-29T09:40:13.272Z,24.20
2024-02-29T09:41:25.652Z,24.22
2024-02-29T09:42:15.409Z,24.21
2024-02-29T09:43:13.562Z,24.20
2024-02-29T09:44:13.526Z,24.17
2024-02-29T09:45:13.571Z,24.14
2024-02-29T09:46:13.690Z,24.13
2024-02-29T09:47:13.704Z,24.11
2024-02-29T09:48:13.744Z,24.09
2024-02-29T09:49:13.813Z,24.06
2024-02-29T09:50:13.841Z,24.03
2024-02-29T09:51:15.997Z,24.00
2024-02-29T09:52:14.120Z,23.98
2024-02-29T09:53:13.992Z,23.95
2024-02-29T09:54:14.038Z,23.94
2024-02-29T09:55:14.136Z,23.91
2024-02-29T09:56:14.168Z,23.89
2024-02-29T09:57:14.191Z,23.88
2024-02-29T09:58:14.313Z,23.88
2024-02-29T09:59:14.270Z,23.89
2024-02-29T10:00:14.332Z,23.87
2024-02-29T10:01:14.495Z,23.87
2024-02-29T10:02:14.437Z,23.90
2024-02-29T10:03:14.401Z,23.90
2024-02-29T10:04:14.508Z,23.89
2024-02-29T10:05:14.449Z,23.91
2024-02-29T10:06:14.474Z,23.93
2024-02-29T10:07:14.550Z,23.96
2024-02-29T10:08:14.529Z,23.98
2024-02-29T10:09:14.566Z,23.99
2024-02-29T10:10:14.656Z,23.98
2024-02-29T10:11:14.663Z,24.00
2024-02-29T10:12:14.629Z,24.02
2024-02-29T10:13:14.711Z,24.05
2024-02-29T10:14:14.617Z,24.06
2024-02-29T10:15:14.637Z,24.06
2024-02-29T10:16:14.837Z,24.05
2024-02-29T10:17:14.657Z,24.07
2024-02-29T10:18:14.676Z,24.07
2024-02-29T10:19:14.714Z,24.09
2024-02-29T10:20:14.683Z,24.10
2024-02-29T10:21:14.680Z,24.13
2024-02-29T10:22:14.711Z,24.14
2024-02-29T10:23:14.736Z,24.15
2024-02-29T10:24:14.720Z,24.16
2024-02-29T10:25:14.829Z,24.16
2024-02-29T10:26:14.772Z,24.16
2024-02-29T10:27:14.894Z,24.17
2024-02-29T10:28:14.914Z,24.18
2024-02-29T10:29:14.956Z,24.18
2024-02-29T10:30:15.032Z,24.18
2024-02-29T10:31:15.187Z,24.20
2024-02-29T10:32:15.142Z,24.19
2024-02-29T10:33:15.202Z,24.21
2024-02-29T10:34:15.392Z,24.24
2024-02-29T10:35:15.339Z,24.25
2024-02-29T10:36:15.381Z,24.26
2024-02-29T10:37:15.440Z,24.26
2024-02-29T10:38:15.486Z,24.27
2024-02-29T10:39:15.564Z,24.27
2024-02-29T10:40:15.669Z,24.28
2024-02-29T10:41:15.688Z,24.28
2024-02-29T10:42:15.765Z,24.28
2024-02-29T10:43:15.940Z,24.29
2024-02-29T10:44:15.890Z,24.25
2024-02-29T10:45:15.933Z,24.25
2024-02-29T10:46:16.069Z,24.27
2024-02-29T10:47:16.016Z,24.25
2024-02-29T10:48:16.035Z,24.24
2024-02-29T10:49:16.093Z,24.23
2024-02-29T10:50:16.037Z,24.21
2024-02-29T10:51:16.056Z,24.20
2024-02-29T10:52:16.142Z,24.19
2024-02-29T10:53:16.111Z,24.19
2024-02-29T10:54:16.111Z,24.19
2024-02-29T10:55:16.206Z,24.21
2024-02-29T10:56:16.115Z,24.20
2024-02-29T10:57:16.140Z,24.22
2024-02-29T10:58:16.189Z,24.20
2024-02-29T10:59:16.178Z,24.18
2024-02-29T11:00:21.238Z,24.17
2024-02-29T11:01:16.311Z,24.16
2024-02-29T11:02:16.221Z,24.15
2024-02-29T11:03:16.232Z,24.14
2024-02-29T11:04:16.316Z,24.15
2024-02-29T11:05:16.236Z,24.14
2024-02-29T11:06:16.228Z,24.14
2024-02-29T11:07:16.281Z,24.13
2024-02-29T11:08:16.216Z,24.14
2024-02-29T11:09:16.230Z,24.14
2024-02-29T11:10:16.289Z,24.15
2024-02-29T11:11:16.377Z,24.16
2024-02-29T11:12:16.216Z,24.15
2024-02-29T11:13:16.264Z,24.16
2024-02-29T11:14:16.334Z,24.17
2024-02-29T11:15:16.244Z,24.18
2024-02-29T11:16:16.261Z,24.19
2024-02-29T11:17:16.328Z,24.20
2024-02-29T11:18:16.270Z,24.22
2024-02-29T11:19:16.468Z,24.24
2024-02-29T11:20:16.299Z,24.25
2024-02-29T11:21:16.386Z,24.27
2024-02-29T11:22:16.594Z,24.28
2024-02-29T11:23:16.514Z,24.29
2024-02-29T11:24:16.578Z,24.32
2024-02-29T11:25:16.701Z,24.33
2024-02-29T11:26:16.720Z,24.34
2024-02-29T11:27:16.799Z,24.33
2024-02-29T11:28:16.943Z,24.34
2024-02-29T11:29:16.911Z,24.32
2024-02-29T11:30:16.911Z,24.33
2024-02-29T11:31:17.146Z,24.34
2024-02-29T11:32:17.048Z,24.35
2024-02-29T11:33:17.079Z,24.37
2024-02-29T11:34:17.017Z,24.36
2024-02-29T11:35:17.632Z,24.35
2024-02-29T11:36:17.029Z,24.35
2024-02-29T11:37:17.099Z,24.34
2024-02-29T11:38:25.085Z,24.35
2024-02-29T11:39:18.070Z,24.33
2024-02-29T11:40:17.249Z,24.31
2024-02-29T11:41:17.080Z,24.31
2024-02-29T11:42:17.060Z,24.28
2024-02-29T11:43:17.155Z,24.28
2024-02-29T11:44:17.083Z,24.28
2024-02-29T11:45:17.089Z,24.26
2024-02-29T11:46:17.171Z,24.27
2024-02-29T11:47:17.080Z,24.27
2024-02-29T11:48:17.107Z,24.27
2024-02-29T11:49:17.136Z,24.27
2024-02-29T11:50:17.083Z,24.29
2024-02-29T11:51:17.108Z,24.30
2024-02-29T11:52:17.143Z,24.31
2024-02-29T11:53:17.124Z,24.33
2024-02-29T11:54:17.135Z,24.33
2024-02-29T11:55:17.259Z,24.34
2024-02-29T11:56:17.360Z,24.36
2024-02-29T11:57:17.242Z,24.36
2024-02-29T11:58:17.429Z,24.38
2024-02-29T11:59:17.348Z,24.41
2024-02-29T12:00:22.411Z,24.42
2024-02-29T12:01:17.470Z,24.43
2024-02-29T12:02:17.489Z,24.44
2024-02-29T12:03:17.422Z,24.45
2024-02-29T12:04:17.406Z,24.46
2024-02-29T12:05:19.296Z,24.48
2024-02-29T12:06:17.589Z,24.49
2024-02-29T12:07:17.673Z,24.51
2024-02-29T12:08:17.679Z,24.53
2024-02-29T12:09:17.720Z,24.54
2024-02-29T12:10:17.873Z,24.54
2024-02-29T12:11:17.793Z,24.55
2024-02-29T12:12:17.836Z,24.55
2024-02-29T12:13:17.947Z,24.56
2024-02-29T12:14:17.910Z,24.56
2024-02-29T12:15:18.030Z,24.57
2024-02-29T12:16:18.010Z,24.57
2024-02-29T12:17:18.060Z,24.56
2024-02-29T12:18:18.121Z,24.58
2024-02-29T12:19:18.217Z,24.58
2024-02-29T12:20:18.312Z,24.59
2024-02-29T12:21:18.200Z,24.59
2024-02-29T12:22:18.284Z,24.60
2024-02-29T12:23:18.296Z,24.60
2024-02-29T12:24:18.329Z,24.60
2024-02-29T12:25:18.408Z,24.60
2024-02-29T12:26:18.646Z,24.59
2024-02-29T12:27:18.491Z,24.60
2024-02-29T12:28:18.534Z,24.60
2024-02-29T12:29:18.583Z,24.60
2024-02-29T12:30:18.620Z,24.61
2024-02-29T12:31:18.793Z,24.61
2024-02-29T12:32:18.721Z,24.62
2024-02-29T12:33:21.150Z,24.62
2024-02-29T12:34:18.809Z,24.61
2024-02-29T12:35:18.950Z,24.61
2024-02-29T12:36:18.900Z,24.62
2024-02-29T12:37:18.855Z,24.59
2024-02-29T12:38:18.783Z,24.58
2024-02-29T12:39:18.780Z,24.59
2024-02-29T12:40:18.801Z,24.59
2024-02-29T12:41:18.777Z,24.59
2024-02-29T12:42:18.790Z,24.59
2024-02-29T12:43:18.824Z,24.60
2024-02-29T12:44:18.800Z,24.59
2024-02-29T12:45:19.864Z,24.58
2024-02-29T12:46:18.813Z,24.58
2024-02-29T12:47:18.810Z,24.60
2024-02-29T12:48:18.786Z,24.60
2024-02-29T12:49:18.851Z,24.61
2024-02-29T12:50:18.778Z,24.63
2024-02-29T12:51:18.790Z,24.63
2024-02-29T12:52:18.842Z,24.63
2024-02-29T12:53:18.833Z,24.63